createdAt,value
2022-10-06T00:01:43.945Z,1.77
2022-10-06T00:06:46.080Z,2.20
2022-10-06T00:11:48.218Z,2.80
2022-10-06T00:16:50.603Z,3.58
2022-10-06T00:21:53.441Z,2.92
2022-10-06T00:26:55.581Z,3.03
2022-10-06T00:31:57.706Z,2.67
2022-10-06T00:36:59.809Z,2.00
2022-10-06T00:42:02.106Z,2.15
2022-10-06T00:47:04.324Z,2.40
2022-10-06T00:52:14.171Z,4.20
2022-10-06T00:57:16.940Z,4.78
2022-10-06T01:02:27.334Z,4.65
2022-10-06T01:07:30.481Z,3.50
2022-10-06T01:12:34.368Z,2.08
2022-10-06T01:17:48.287Z,1.77
2022-10-06T01:22:57.422Z,1.98
2022-10-06T01:28:02.947Z,1.90
2022-10-06T01:33:05.655Z,1.92
2022-10-06T01:38:08.944Z,1.80
2022-10-06T01:43:11.115Z,2.35
2022-10-06T01:48:13.509Z,2.10
2022-10-06T01:53:16.355Z,2.20
2022-10-06T01:58:18.680Z,2.05
2022-10-06T02:03:21.404Z,2.10
2022-10-06T02:08:23.574Z,1.80
2022-10-06T02:13:30.196Z,1.92
2022-10-06T02:18:36.473Z,2.25
2022-10-06T02:23:38.639Z,1.77
2022-10-06T02:28:40.861Z,1.60
2022-10-06T02:33:46.307Z,2.35
2022-10-06T02:38:50.546Z,2.05
2022-10-06T02:43:55.307Z,1.98
2022-10-06T02:48:59.528Z,1.63
2022-10-06T02:54:02.198Z,1.75
2022-10-06T02:59:04.591Z,1.80
2022-10-06T03:04:11.748Z,2.28
2022-10-06T03:09:15.983Z,1.67
2022-10-06T03:14:21.919Z,1.90
2022-10-06T03:19:25.971Z,1.40
2022-10-06T03:24:29.120Z,1.40
2022-10-06T03:29:34.212Z,1.45
2022-10-06T03:34:37.715Z,1.63
2022-10-06T03:39:43.389Z,1.60
2022-10-06T03:44:46.409Z,1.35
2022-10-06T03:49:49.264Z,1.35
2022-10-06T03:54:52.168Z,1.45
2022-10-06T03:59:55.198Z,1.23
2022-10-06T04:04:57.435Z,1.40
2022-10-06T04:09:59.937Z,1.42
2022-10-06T04:15:02.448Z,1.67
2022-10-06T04:20:05.997Z,1.33
2022-10-06T04:25:08.584Z,1.63
2022-10-06T04:30:11.479Z,1.05
2022-10-06T04:35:14.546Z,0.95
2022-10-06T04:40:16.896Z,1.05
2022-10-06T04:45:19.038Z,1.48
2022-10-06T04:50:21.599Z,1.40
2022-10-06T04:55:41.850Z,1.23
2022-10-06T05:00:44.242Z,1.30
2022-10-06T05:05:46.506Z,1.20
2022-10-06T05:10:48.771Z,1.00
2022-10-06T05:15:59.431Z,1.85
2022-10-06T05:21:16.914Z,1.17
2022-10-06T05:26:23.352Z,1.10
2022-10-06T05:31:33.338Z,1.00
2022-10-06T05:36:39.054Z,1.30
2022-10-06T05:41:42.574Z,1.85
2022-10-06T05:46:46.412Z,1.10
2022-10-06T05:51:49.104Z,1.00
2022-10-06T05:56:56.117Z,1.20
2022-10-06T06:01:58.611Z,1.50
2022-10-06T06:07:09.269Z,1.17
2022-10-06T06:12:12.200Z,1.65
2022-10-06T06:17:14.347Z,4.13
2022-10-06T06:22:16.717Z,6.13
2022-10-06T06:27:21.366Z,7.70
2022-10-06T06:32:24.970Z,4.15
2022-10-06T06:37:31.469Z,3.00
2022-10-06T06:42:34.528Z,2.22
2022-10-06T06:47:59.697Z,1.98
2022-10-06T06:53:02.619Z,2.00
2022-10-06T06:58:07.426Z,1.90
2022-10-06T07:03:24.103Z,1.70
2022-10-06T07:08:43.854Z,2.60
2022-10-06T07:13:50.901Z,3.00
2022-10-06T07:19:11.843Z,1.80
2022-10-06T07:24:40.891Z,1.38
2022-10-06T07:29:44.743Z,1.30
2022-10-06T07:34:51.361Z,1.33
2022-10-06T07:39:53.928Z,1.35
2022-10-06T07:45:14.641Z,0.90
2022-10-06T07:50:17.061Z,1.45
2022-10-06T07:55:19.795Z,1.20
2022-10-06T08:00:41.802Z,1.02
2022-10-06T08:05:45.273Z,1.58
2022-10-06T08:10:53.916Z,2.15
2022-10-06T08:15:56.605Z,1.20
2022-10-06T08:20:59.039Z,1.38
2022-10-06T08:26:01.167Z,1.10
2022-10-06T08:31:05.854Z,1.30
2022-10-06T08:36:10.283Z,1.30
2022-10-06T08:41:25.002Z,1.90
2022-10-06T08:46:34.882Z,2.28
2022-10-06T08:51:55.962Z,1.70
2022-10-06T08:57:21.924Z,1.85
2022-10-06T09:02:39.255Z,1.75
2022-10-06T09:08:34.197Z,1.92
2022-10-06T09:14:02.342Z,1.63
2022-10-06T09:19:31.257Z,1.98
2022-10-06T09:24:47.473Z,1.80
2022-10-06T09:29:51.149Z,1.75
2022-10-06T09:34:55.933Z,1.90
2022-10-06T09:39:58.429Z,2.40
2022-10-06T09:45:25.884Z,2.28
2022-10-06T09:50:28.400Z,2.25
2022-10-06T09:55:37.830Z,2.55
2022-10-06T10:00:48.580Z,2.15
2022-10-06T10:05:54.951Z,1.83
2022-10-06T10:11:27.403Z,1.48
2022-10-06T10:16:34.791Z,1.98
2022-10-06T10:21:37.240Z,2.40
2022-10-06T10:26:58.247Z,2.58
2022-10-06T10:32:17.172Z,1.90
2022-10-06T10:37:28.845Z,2.00
2022-10-06T10:42:38.290Z,2.20
2022-10-06T10:47:45.488Z,2.03
2022-10-06T10:52:50.760Z,1.50
2022-10-06T10:57:57.174Z,2.63
2022-10-06T11:03:01.682Z,1.77
2022-10-06T11:08:11.922Z,1.60
2022-10-06T11:13:39.831Z,1.60
2022-10-06T11:18:45.262Z,1.52
2022-10-06T11:24:05.696Z,1.90
2022-10-06T11:29:10.771Z,1.63
2022-10-06T11:34:14.267Z,1.50
2022-10-06T11:39:22.782Z,1.90
2022-10-06T11:44:45.730Z,1.70
2022-10-06T11:49:52.726Z,1.85
2022-10-06T11:55:16.076Z,1.40
2022-10-06T12:00:18.204Z,1.55
2022-10-06T12:05:54.751Z,1.23
2022-10-06T12:10:51.819Z,1.30
2022-10-06T12:21:55.745Z,1.17
2022-10-06T12:26:58.071Z,2.20
2022-10-06T12:32:39.638Z,1.30
2022-10-06T12:37:54.432Z,1.10
2022-10-06T12:43:19.211Z,1.53
2022-10-06T12:48:26.875Z,1.67
2022-10-06T12:53:34.727Z,1.70
2022-10-06T12:58:36.779Z,1.60
2022-10-06T13:03:39.300Z,1.60
2022-10-06T13:08:41.824Z,1.33
2022-10-06T13:13:49.713Z,1.33
2022-10-06T13:18:56.257Z,1.90
2022-10-06T13:23:58.379Z,1.50
2022-10-06T13:29:00.977Z,1.75
2022-10-06T13:34:11.301Z,1.83
2022-10-06T13:39:14.416Z,1.98
2022-10-06T13:44:34.858Z,1.52
2022-10-06T13:50:02.067Z,1.30
2022-10-06T13:55:14.836Z,1.80
2022-10-06T14:00:27.572Z,1.48
2022-10-06T14:05:38.497Z,1.90
2022-10-06T14:10:40.677Z,1.42
2022-10-06T14:15:53.106Z,1.85
2022-10-06T14:20:57.297Z,1.30
2022-10-06T14:25:59.840Z,1.40
2022-10-06T14:31:02.062Z,1.40
2022-10-06T14:36:04.569Z,1.23
2022-10-06T14:41:06.708Z,1.55
2022-10-06T14:46:11.116Z,1.45
2022-10-06T14:51:13.346Z,1.60
2022-10-06T14:56:16.054Z,1.27
2022-10-06T15:01:20.787Z,1.40
2022-10-06T15:06:41.872Z,1.52
2022-10-06T15:11:45.563Z,1.50
2022-10-06T15:16:47.923Z,1.00
2022-10-06T15:21:51.124Z,1.52
2022-10-06T15:27:11.578Z,1.27
2022-10-06T15:32:14.789Z,1.58
2022-10-06T15:37:19.990Z,1.30
2022-10-06T15:42:24.262Z,1.60
2022-10-06T15:47:27.287Z,1.25
2022-10-06T15:52:29.486Z,1.38
2022-10-06T15:57:31.623Z,1.25
2022-10-06T16:02:35.828Z,1.50
2022-10-06T16:07:38.057Z,1.70
2022-10-06T16:12:40.123Z,1.50
2022-10-06T16:17:42.255Z,1.50
2022-10-06T16:22:44.346Z,1.38
2022-10-06T16:27:46.706Z,1.40
2022-10-06T16:32:48.777Z,2.00
2022-10-06T16:37:51.334Z,1.10
2022-10-06T16:42:53.588Z,1.90
2022-10-06T16:47:56.048Z,1.83
2022-10-06T16:52:58.190Z,1.42
2022-10-06T16:58:00.435Z,1.35
2022-10-06T17:03:02.502Z,1.30
2022-10-06T17:08:04.726Z,1.58
2022-10-06T17:13:07.035Z,1.48
2022-10-06T17:18:09.496Z,1.33
2022-10-06T17:23:13.227Z,2.15
2022-10-06T17:28:15.525Z,2.15
2022-10-06T17:33:17.714Z,1.67
2022-10-06T17:38:20.593Z,1.60
2022-10-06T17:43:23.465Z,1.40
2022-10-06T17:48:27.169Z,1.70
2022-10-06T17:53:29.384Z,1.77
2022-10-06T17:58:31.518Z,1.80
2022-10-06T18:03:38.763Z,2.17
2022-10-06T18:08:44.865Z,1.27
2022-10-06T18:13:49.607Z,1.58
2022-10-06T18:18:54.623Z,1.42
2022-10-06T18:23:56.797Z,1.60
2022-10-06T18:28:58.939Z,1.50
2022-10-06T18:39:23.629Z,2.17
2022-10-06T18:44:44.361Z,2.50
2022-10-06T18:49:46.668Z,3.00
2022-10-06T18:54:49.203Z,2.60
2022-10-06T18:59:51.402Z,2.22
2022-10-06T19:04:53.547Z,2.70
2022-10-06T19:09:55.700Z,2.83
2022-10-06T19:14:58.304Z,2.80
2022-10-06T19:20:00.657Z,2.25
2022-10-06T19:25:02.800Z,2.03
2022-10-06T19:30:05.679Z,2.15
2022-10-06T19:35:10.365Z,3.88
2022-10-06T19:40:14.183Z,4.80
2022-10-06T19:45:17.794Z,3.95
2022-10-06T19:50:19.892Z,2.80
2022-10-06T19:55:23.373Z,2.67
2022-10-06T20:00:27.030Z,3.03
2022-10-06T20:05:29.225Z,4.38
2022-10-06T20:10:31.504Z,3.08
2022-10-06T20:15:35.044Z,3.00
2022-10-06T20:20:37.082Z,2.70
2022-10-06T20:25:39.152Z,2.78
2022-10-06T20:30:49.520Z,3.17
2022-10-06T20:35:51.615Z,2.67
2022-10-06T20:40:53.829Z,2.08
2022-10-06T20:45:55.908Z,1.80
2022-10-06T20:50:58.443Z,2.10
2022-10-06T20:56:00.521Z,2.03
2022-10-06T21:01:06.130Z,2.50
2022-10-06T21:06:08.332Z,2.60
2022-10-06T21:11:12.121Z,2.40
2022-10-06T21:16:14.545Z,2.45
2022-10-06T21:21:17.031Z,2.10
2022-10-06T21:26:21.856Z,2.38
2022-10-06T21:31:26.179Z,1.98
2022-10-06T21:36:32.118Z,2.28
2022-10-06T21:41:39.882Z,2.10
2022-10-06T21:46:53.731Z,2.00
2022-10-06T21:51:58.419Z,2.03
2022-10-06T21:57:00.749Z,1.55
2022-10-06T22:02:02.898Z,1.73
2022-10-06T22:07:05.023Z,1.70
2022-10-06T22:12:07.097Z,1.73
2022-10-06T22:17:09.166Z,1.55
2022-10-06T22:22:11.256Z,2.08
2022-10-06T22:27:13.376Z,1.52
2022-10-06T22:32:15.462Z,1.77
2022-10-06T22:37:17.645Z,1.85
2022-10-06T22:42:19.834Z,1.70
2022-10-06T22:47:21.954Z,1.73
2022-10-06T22:52:24.135Z,1.90
2022-10-06T22:57:26.376Z,2.05
2022-10-06T23:02:28.578Z,2.25
2022-10-06T23:07:31.187Z,1.52
2022-10-06T23:12:33.320Z,1.70
2022-10-06T23:17:37.920Z,1.45
2022-10-06T23:22:40.297Z,1.65
2022-10-06T23:27:42.675Z,1.70
2022-10-06T23:32:45.078Z,1.77
2022-10-06T23:37:47.675Z,1.70
2022-10-06T23:42:49.886Z,1.60
2022-10-06T23:47:51.966Z,1.25
2022-10-06T23:52:54.033Z,1.90
2022-10-06T23:57:56.129Z,1.50
